createdAt,value
2018-09-11T00:00:23.674Z,32.38
2018-09-11T00:02:57.058Z,31.75
2018-09-11T00:05:30.448Z,32.17
2018-09-11T00:08:03.852Z,32.23
2018-09-11T00:10:37.255Z,32.08
2018-09-11T00:13:10.643Z,32.50
2018-09-11T00:15:45.079Z,32.50
2018-09-11T00:18:18.475Z,32.17
2018-09-11T00:20:51.844Z,32.20
2018-09-11T00:23:25.239Z,32.42
2018-09-11T00:25:58.746Z,32.42
2018-09-11T00:28:32.148Z,31.82
2018-09-11T00:31:05.543Z,31.65
2018-09-11T00:33:38.940Z,32.50
2018-09-11T00:36:12.362Z,31.87
2018-09-11T00:38:45.859Z,31.95
2018-09-11T00:41:19.234Z,31.80
2018-09-11T00:43:52.626Z,31.95
2018-09-11T00:46:26.011Z,32.63
2018-09-11T00:48:59.400Z,32.20
2018-09-11T00:51:33.286Z,31.93
2018-09-11T00:54:06.723Z,32.85
2018-09-11T00:56:40.099Z,32.83
2018-09-11T00:59:13.492Z,32.42
2018-09-11T01:01:46.906Z,31.70
2018-09-11T01:04:20.311Z,31.73
2018-09-11T01:06:53.680Z,32.00
2018-09-11T01:09:27.079Z,32.58
2018-09-11T01:12:00.451Z,31.70
2018-09-11T01:14:33.839Z,32.83
2018-09-11T01:17:07.305Z,32.63
2018-09-11T01:19:40.710Z,32.50
2018-09-11T01:22:14.085Z,32.35
2018-09-11T01:24:47.496Z,32.53
2018-09-11T01:27:21.917Z,32.20
2018-09-11T01:29:55.307Z,32.33
2018-09-11T01:32:28.687Z,32.03
2018-09-11T01:35:03.256Z,32.70
2018-09-11T01:37:36.602Z,32.73
2018-09-11T01:40:10.014Z,32.23
2018-09-11T01:42:43.387Z,32.05
2018-09-11T01:45:16.812Z,32.15
2018-09-11T01:47:50.191Z,32.75
2018-09-11T01:50:23.580Z,32.33
2018-09-11T01:52:56.963Z,32.78
2018-09-11T01:55:30.346Z,31.95
2018-09-11T01:58:03.738Z,32.60
2018-09-11T02:00:37.128Z,32.08
2018-09-11T02:03:10.510Z,32.38
2018-09-11T02:05:43.907Z,31.75
2018-09-11T02:08:17.307Z,32.13
2018-09-11T02:10:50.683Z,31.93
2018-09-11T02:13:24.089Z,31.52
2018-09-11T02:15:57.459Z,31.75
2018-09-11T02:18:30.852Z,32.15
2018-09-11T02:21:04.234Z,32.13
2018-09-11T02:23:37.659Z,31.80
2018-09-11T02:26:11.051Z,32.10
2018-09-11T02:28:44.423Z,31.52
2018-09-11T02:31:17.823Z,31.68
2018-09-11T02:33:51.406Z,31.55
2018-09-11T02:36:24.803Z,31.95
2018-09-11T02:38:58.236Z,31.73
2018-09-11T02:41:31.674Z,32.15
2018-09-11T02:44:05.135Z,31.95
2018-09-11T02:46:38.548Z,32.40
2018-09-11T02:49:11.969Z,32.23
2018-09-11T02:51:45.419Z,32.10
2018-09-11T02:54:18.844Z,32.13
2018-09-11T02:56:52.248Z,31.75
2018-09-11T02:59:25.696Z,31.52
2018-09-11T03:01:59.131Z,31.10
2018-09-11T03:04:32.548Z,31.93
2018-09-11T03:07:05.938Z,31.90
2018-09-11T03:09:39.455Z,31.80
2018-09-11T03:12:12.847Z,31.87
2018-09-11T03:14:46.259Z,32.48
2018-09-11T03:17:20.318Z,32.40
2018-09-11T03:19:53.726Z,33.38
2018-09-11T03:22:27.121Z,31.37
2018-09-11T03:25:00.546Z,31.52
2018-09-11T03:27:33.943Z,32.05
2018-09-11T03:30:08.281Z,32.03
2018-09-11T03:32:41.704Z,31.65
2018-09-11T03:35:15.137Z,31.37
2018-09-11T03:37:48.532Z,31.55
2018-09-11T03:40:21.928Z,31.77
2018-09-11T03:42:55.347Z,31.80
2018-09-11T03:45:28.893Z,32.40
2018-09-11T03:48:02.292Z,31.27
2018-09-11T03:50:35.775Z,31.50
2018-09-11T03:53:09.229Z,31.12
2018-09-11T03:55:42.646Z,31.93
2018-09-11T03:58:17.138Z,31.87
2018-09-11T04:00:50.552Z,32.00
2018-09-11T04:03:23.955Z,31.45
2018-09-11T04:05:57.358Z,32.13
2018-09-11T04:08:30.777Z,32.03
2018-09-11T04:11:04.206Z,32.30
2018-09-11T04:13:37.621Z,32.00
2018-09-11T04:16:11.030Z,32.23
2018-09-11T04:18:44.419Z,31.82
2018-09-11T04:21:17.838Z,31.52
2018-09-11T04:23:51.233Z,31.95
2018-09-11T04:26:24.689Z,31.62
2018-09-11T04:28:58.130Z,31.33
2018-09-11T04:31:31.595Z,31.37
2018-09-11T04:34:05.028Z,31.37
2018-09-11T04:36:38.559Z,32.65
2018-09-11T04:39:11.982Z,32.45
2018-09-11T04:41:45.391Z,34.23
2018-09-11T04:44:18.792Z,32.90
2018-09-11T04:46:52.203Z,32.08
2018-09-11T04:49:25.599Z,30.88
2018-09-11T04:51:59.011Z,30.80
2018-09-11T04:54:32.427Z,31.57
2018-09-11T04:57:05.921Z,30.92
2018-09-11T04:59:39.374Z,31.27
2018-09-11T05:02:12.795Z,30.95
2018-09-11T05:04:46.200Z,31.17
2018-09-11T05:07:19.638Z,31.93
2018-09-11T05:09:53.053Z,32.05
2018-09-11T05:12:26.467Z,31.45
2018-09-11T05:14:59.858Z,31.93
2018-09-11T05:17:33.399Z,31.00
2018-09-11T05:20:06.939Z,31.17
2018-09-11T05:22:40.412Z,30.77
2018-09-11T05:25:13.817Z,31.85
2018-09-11T05:27:47.279Z,31.70
2018-09-11T05:30:20.674Z,31.42
2018-09-11T05:32:54.089Z,30.95
2018-09-11T05:35:27.613Z,31.33
2018-09-11T05:38:01.046Z,31.73
2018-09-11T05:40:34.444Z,31.52
2018-09-11T05:43:07.859Z,31.90
2018-09-11T05:45:41.254Z,31.42
2018-09-11T05:48:14.771Z,31.65
2018-09-11T05:50:48.211Z,31.50
2018-09-11T05:53:21.627Z,30.70
2018-09-11T05:55:55.019Z,31.33
2018-09-11T05:58:28.531Z,30.45
2018-09-11T06:01:01.941Z,30.45
2018-09-11T06:03:35.361Z,31.35
2018-09-11T06:06:08.798Z,30.65
2018-09-11T06:08:42.215Z,30.85
2018-09-11T06:11:15.623Z,31.05
2018-09-11T06:13:49.340Z,32.28
2018-09-11T06:16:22.761Z,32.65
2018-09-11T06:18:56.156Z,31.48
2018-09-11T06:21:29.547Z,31.55
2018-09-11T06:24:02.977Z,31.62
2018-09-11T06:26:36.374Z,30.70
2018-09-11T06:29:09.864Z,31.40
2018-09-11T06:31:43.243Z,30.77
2018-09-11T06:34:16.659Z,30.97
2018-09-11T06:36:50.085Z,31.25
2018-09-11T06:39:23.523Z,31.52
2018-09-11T06:41:56.911Z,31.30
2018-09-11T06:44:30.340Z,31.12
2018-09-11T06:47:03.865Z,32.00
2018-09-11T06:49:37.198Z,31.45
2018-09-11T06:52:10.594Z,31.27
2018-09-11T06:54:44.062Z,31.17
2018-09-11T06:57:17.439Z,30.43
2018-09-11T06:59:50.854Z,30.55
2018-09-11T07:02:24.243Z,31.30
2018-09-11T07:04:57.650Z,31.55
2018-09-11T07:07:31.042Z,35.45
2018-09-11T07:10:04.667Z,33.13
2018-09-11T07:12:38.069Z,31.75
2018-09-11T07:15:11.563Z,32.30
2018-09-11T07:17:44.967Z,32.80
2018-09-11T07:20:18.578Z,30.75
2018-09-11T07:22:51.795Z,31.33
2018-09-11T07:25:25.214Z,31.97
2018-09-11T07:27:58.611Z,32.17
2018-09-11T07:30:32.240Z,31.85
2018-09-11T07:33:05.695Z,32.05
2018-09-11T07:35:39.110Z,34.75
2018-09-11T07:38:12.591Z,33.25
2018-09-11T07:40:46.094Z,33.80
2018-09-11T07:43:19.495Z,33.60
2018-09-11T07:45:52.955Z,33.55
2018-09-11T07:48:26.358Z,33.78
2018-09-11T07:50:59.778Z,32.85
2018-09-11T07:53:33.332Z,33.45
2018-09-11T07:56:06.850Z,32.70
2018-09-11T07:58:40.298Z,33.25
2018-09-11T08:01:13.746Z,33.50
2018-09-11T08:03:47.248Z,32.75
2018-09-11T08:06:20.665Z,33.28
2018-09-11T08:08:54.107Z,33.02
2018-09-11T08:11:27.551Z,32.83
2018-09-11T08:14:01.043Z,33.23
2018-09-11T08:16:34.546Z,33.25
2018-09-11T08:19:07.897Z,33.18
2018-09-11T08:21:41.332Z,33.28
2018-09-11T08:24:14.727Z,32.90
2018-09-11T08:26:48.134Z,32.83
2018-09-11T08:29:21.584Z,33.38
2018-09-11T08:31:55.032Z,34.27
2018-09-11T08:34:28.419Z,33.48
2018-09-11T08:37:01.850Z,33.10
2018-09-11T08:39:36.308Z,32.80
2018-09-11T08:42:09.727Z,32.83
2018-09-11T08:44:43.124Z,33.13
2018-09-11T08:47:16.555Z,32.93
2018-09-11T08:49:49.953Z,32.55
2018-09-11T08:52:23.435Z,33.48
2018-09-11T08:54:56.807Z,32.23
2018-09-11T08:57:30.215Z,33.00
2018-09-11T09:00:03.685Z,33.98
2018-09-11T09:02:37.091Z,32.83
2018-09-11T09:05:10.480Z,32.93
2018-09-11T09:07:43.996Z,33.75
2018-09-11T09:10:17.400Z,33.35
2018-09-11T09:12:50.835Z,33.05
2018-09-11T09:15:24.255Z,32.95
2018-09-11T09:17:57.668Z,34.92
2018-09-11T09:20:31.151Z,34.25
2018-09-11T09:23:04.562Z,34.20
2018-09-11T09:25:37.963Z,34.05
2018-09-11T09:28:11.380Z,33.95
2018-09-11T09:30:44.776Z,33.90
2018-09-11T09:33:18.207Z,33.73
2018-09-11T09:35:51.780Z,33.98
2018-09-11T09:38:25.206Z,34.00
2018-09-11T09:40:58.595Z,34.73
2018-09-11T09:43:32.022Z,33.83
2018-09-11T09:46:11.131Z,34.53
2018-09-11T09:48:44.600Z,34.38
2018-09-11T09:51:18.104Z,34.08
2018-09-11T09:53:51.575Z,34.23
2018-09-11T09:56:24.962Z,33.78
2018-09-11T09:58:58.385Z,34.78
2018-09-11T10:01:37.027Z,33.75
2018-09-11T10:04:10.542Z,33.78
2018-09-11T10:06:44.126Z,33.92
2018-09-11T10:09:17.539Z,34.03
2018-09-11T10:11:51.016Z,33.70
2018-09-11T10:14:24.387Z,34.75
2018-09-11T10:16:57.779Z,33.92
2018-09-11T10:19:31.288Z,34.18
2018-09-11T10:22:04.990Z,34.05
2018-09-11T10:24:38.446Z,33.88
2018-09-11T10:27:12.530Z,33.40
2018-09-11T10:29:45.939Z,34.30
2018-09-11T10:32:19.353Z,33.80
2018-09-11T10:34:54.551Z,33.65
2018-09-11T10:37:28.026Z,33.88
2018-09-11T10:40:01.461Z,33.40
2018-09-11T10:42:34.862Z,33.35
2018-09-11T10:45:08.327Z,34.67
2018-09-11T10:47:41.887Z,33.95
2018-09-11T10:50:15.323Z,33.98
2018-09-11T10:52:48.723Z,33.80
2018-09-11T10:55:22.146Z,34.08
2018-09-11T10:57:55.600Z,33.55
2018-09-11T11:00:29.354Z,34.05
2018-09-11T11:03:02.902Z,33.78
2018-09-11T11:05:36.327Z,33.58
2018-09-11T11:08:09.804Z,34.18
2018-09-11T11:10:43.226Z,33.85
2018-09-11T11:13:16.612Z,34.05
2018-09-11T11:15:50.022Z,34.08
2018-09-11T11:18:23.492Z,33.28
2018-09-11T11:20:56.932Z,33.40
2018-09-11T11:23:30.429Z,33.80
2018-09-11T11:26:03.864Z,32.85
2018-09-11T11:28:37.256Z,33.48
2018-09-11T11:31:11.723Z,33.05
2018-09-11T11:33:45.115Z,33.05
2018-09-11T11:36:18.651Z,33.90
2018-09-11T11:38:51.961Z,33.33
2018-09-11T11:41:25.374Z,33.53
2018-09-11T11:43:58.771Z,33.13
2018-09-11T11:46:32.227Z,34.00
2018-09-11T11:49:05.663Z,33.48
2018-09-11T11:51:39.114Z,33.30
2018-09-11T11:54:12.504Z,33.48
2018-09-11T11:56:45.923Z,33.20
2018-09-11T11:59:19.322Z,33.42
2018-09-11T12:01:52.776Z,33.42
2018-09-11T12:04:26.308Z,33.73
2018-09-11T12:06:59.709Z,34.13
2018-09-11T12:09:33.106Z,33.95
2018-09-11T12:12:06.634Z,33.25
2018-09-11T12:14:40.029Z,33.60
2018-09-11T12:17:13.435Z,33.30
2018-09-11T12:19:46.826Z,34.40
2018-09-11T12:22:20.259Z,33.65
2018-09-11T12:24:53.650Z,34.10
2018-09-11T12:27:27.081Z,33.05
2018-09-11T12:30:00.484Z,33.70
2018-09-11T12:32:33.906Z,34.48
2018-09-11T12:35:07.356Z,33.20
2018-09-11T12:37:40.775Z,33.48
2018-09-11T12:40:14.194Z,33.80
2018-09-11T12:42:47.668Z,33.58
2018-09-11T12:45:21.143Z,34.00
2018-09-11T12:47:54.717Z,33.67
2018-09-11T12:50:28.544Z,33.88
2018-09-11T12:53:02.130Z,33.50
2018-09-11T12:55:35.643Z,33.85
2018-09-11T12:58:09.069Z,32.85
2018-09-11T13:00:42.627Z,33.65
2018-09-11T13:03:16.045Z,33.63
2018-09-11T13:05:49.539Z,33.70
2018-09-11T13:08:22.959Z,33.42
2018-09-11T13:10:56.357Z,34.00
2018-09-11T13:13:29.835Z,33.55
2018-09-11T13:16:03.234Z,33.42
2018-09-11T13:18:36.655Z,33.80
2018-09-11T13:21:10.143Z,33.75
2018-09-11T13:23:43.557Z,33.88
2018-09-11T13:26:17.238Z,34.33
2018-09-11T13:28:50.791Z,34.35
2018-09-11T13:31:24.207Z,33.33
2018-09-11T13:33:57.815Z,34.38
2018-09-11T13:36:31.206Z,33.38
2018-09-11T13:39:06.124Z,33.95
2018-09-11T13:41:39.661Z,34.05
2018-09-11T13:44:13.078Z,33.53
2018-09-11T13:46:46.716Z,34.10
2018-09-11T13:49:20.162Z,34.00
2018-09-11T13:51:53.626Z,33.88
2018-09-11T13:54:27.099Z,33.75
2018-09-11T13:57:00.493Z,33.88
2018-09-11T13:59:33.948Z,33.40
2018-09-11T14:02:07.607Z,34.45
2018-09-11T14:04:41.071Z,33.78
2018-09-11T14:07:14.567Z,34.00
2018-09-11T14:09:48.031Z,33.98
2018-09-11T14:12:21.442Z,35.20
2018-09-11T14:14:54.934Z,33.02
2018-09-11T14:17:28.354Z,33.53
2018-09-11T14:20:01.759Z,33.85
2018-09-11T14:22:35.164Z,33.33
2018-09-11T14:25:08.595Z,33.83
2018-09-11T14:27:42.040Z,33.98
2018-09-11T14:30:16.081Z,33.40
2018-09-11T14:32:49.513Z,33.35
2018-09-11T14:35:22.923Z,33.95
2018-09-11T14:37:56.405Z,33.78
2018-09-11T14:40:29.818Z,33.88
2018-09-11T14:43:03.268Z,33.95
2018-09-11T14:45:36.715Z,33.67
2018-09-11T14:48:10.151Z,32.93
2018-09-11T14:50:43.626Z,33.98
2018-09-11T14:53:17.038Z,33.53
2018-09-11T14:55:50.456Z,33.67
2018-09-11T14:58:23.947Z,35.70
2018-09-11T15:00:57.336Z,33.92
2018-09-11T15:03:30.747Z,34.53
2018-09-11T15:06:04.151Z,33.83
2018-09-11T15:08:37.618Z,33.48
2018-09-11T15:11:11.043Z,34.20
2018-09-11T15:13:44.455Z,33.88
2018-09-11T15:16:17.855Z,33.95
2018-09-11T15:18:51.287Z,33.85
2018-09-11T15:21:24.671Z,34.23
2018-09-11T15:23:58.114Z,33.83
2018-09-11T15:26:31.511Z,33.55
2018-09-11T15:29:05.163Z,33.58
2018-09-11T15:31:38.557Z,33.98
2018-09-11T15:34:12.032Z,33.83
2018-09-11T15:36:45.451Z,34.48
2018-09-11T15:39:18.861Z,33.78
2018-09-11T15:41:52.360Z,33.80
2018-09-11T15:44:26.074Z,33.73
2018-09-11T15:46:59.505Z,33.50
2018-09-11T15:49:32.933Z,33.83
2018-09-11T15:52:06.471Z,33.85
2018-09-11T15:54:39.891Z,33.65
2018-09-11T15:57:13.286Z,34.33
2018-09-11T15:59:46.695Z,33.95
2018-09-11T16:02:20.079Z,33.78
2018-09-11T16:04:53.487Z,33.85
2018-09-11T16:07:26.879Z,33.90
2018-09-11T16:10:00.301Z,34.10
2018-09-11T16:12:33.698Z,33.45
2018-09-11T16:15:07.221Z,33.58
2018-09-11T16:17:40.660Z,34.18
2018-09-11T16:20:14.109Z,34.05
2018-09-11T16:22:47.515Z,34.25
2018-09-11T16:25:20.956Z,33.83
2018-09-11T16:27:54.363Z,34.27
2018-09-11T16:30:27.792Z,34.05
2018-09-11T16:33:01.742Z,33.42
2018-09-11T16:35:35.163Z,33.20
2018-09-11T16:38:08.580Z,34.48
2018-09-11T16:40:43.390Z,34.20
2018-09-11T16:43:16.864Z,34.83
2018-09-11T16:45:50.303Z,33.90
2018-09-11T16:48:23.766Z,33.90
2018-09-11T16:50:57.184Z,34.50
2018-09-11T16:53:30.643Z,34.15
2018-09-11T16:56:04.083Z,33.95
2018-09-11T16:58:37.486Z,34.33
2018-09-11T17:01:11.040Z,34.15
2018-09-11T17:03:44.471Z,33.98
2018-09-11T17:06:17.920Z,33.75
2018-09-11T17:08:51.338Z,34.95
2018-09-11T17:11:24.880Z,33.92
2018-09-11T17:13:58.270Z,33.50
2018-09-11T17:16:32.763Z,34.30
2018-09-11T17:19:06.236Z,34.95
2018-09-11T17:21:39.658Z,33.92
2018-09-11T17:24:13.067Z,33.90
2018-09-11T17:26:46.496Z,34.70
2018-09-11T17:29:20.140Z,34.53
2018-09-11T17:31:54.303Z,34.27
2018-09-11T17:34:28.772Z,35.13
2018-09-11T17:37:02.271Z,33.98
2018-09-11T17:39:35.775Z,34.08
2018-09-11T17:42:09.366Z,34.55
2018-09-11T17:44:42.771Z,33.83
2018-09-11T17:47:16.219Z,33.85
2018-09-11T17:49:49.687Z,34.08
2018-09-11T17:52:23.172Z,34.88
2018-09-11T17:54:56.582Z,33.73
2018-09-11T17:57:30.288Z,34.15
2018-09-11T18:00:03.775Z,33.73
2018-09-11T18:02:37.204Z,33.45
2018-09-11T18:05:10.602Z,33.65
2018-09-11T18:07:44.132Z,34.00
2018-09-11T18:10:17.571Z,33.83
2018-09-11T18:12:51.005Z,33.78
2018-09-11T18:15:24.394Z,33.60
2018-09-11T18:17:57.810Z,33.13
2018-09-11T18:20:31.277Z,34.40
2018-09-11T18:23:04.790Z,34.10
2018-09-11T18:25:38.283Z,34.13
2018-09-11T18:28:11.689Z,33.20
2018-09-11T18:30:45.177Z,32.93
2018-09-11T18:33:18.662Z,33.40
2018-09-11T18:35:52.055Z,34.00
2018-09-11T18:38:25.555Z,34.13
2018-09-11T18:40:58.966Z,33.25
2018-09-11T18:43:32.382Z,33.45
2018-09-11T18:46:05.849Z,33.60
2018-09-11T18:48:39.364Z,33.53
2018-09-11T18:51:12.778Z,33.63
2018-09-11T18:53:46.183Z,33.40
2018-09-11T18:56:19.571Z,33.45
2018-09-11T18:58:53.242Z,33.20
2018-09-11T19:01:26.644Z,33.58
2018-09-11T19:04:00.135Z,33.45
2018-09-11T19:06:33.617Z,33.95
2018-09-11T19:09:08.781Z,33.83
2018-09-11T19:11:42.390Z,33.55
2018-09-11T19:14:15.870Z,33.42
2018-09-11T19:16:49.556Z,33.75
2018-09-11T19:19:22.914Z,33.28
2018-09-11T19:21:56.358Z,33.33
2018-09-11T19:24:29.762Z,33.28
2018-09-11T19:27:03.390Z,33.35
2018-09-11T19:29:36.779Z,33.33
2018-09-11T19:32:10.291Z,34.08
2018-09-11T19:34:43.775Z,33.08
2018-09-11T19:37:17.323Z,33.50
2018-09-11T19:39:50.735Z,33.45
2018-09-11T19:42:24.223Z,33.38
2018-09-11T19:44:57.748Z,33.13
2018-09-11T19:47:31.423Z,33.95
2018-09-11T19:50:06.076Z,33.70
2018-09-11T19:52:39.484Z,33.40
2018-09-11T19:55:13.056Z,32.83
2018-09-11T19:57:46.522Z,33.13
2018-09-11T20:00:19.906Z,33.25
2018-09-11T20:02:53.307Z,33.30
2018-09-11T20:05:26.906Z,33.10
2018-09-11T20:08:00.627Z,34.33
2018-09-11T20:10:34.099Z,33.83
2018-09-11T20:13:07.934Z,33.10
2018-09-11T20:15:41.371Z,33.45
2018-09-11T20:18:14.778Z,33.95
2018-09-11T20:20:48.182Z,33.18
2018-09-11T20:23:21.631Z,33.28
2018-09-11T20:25:55.042Z,33.35
2018-09-11T20:28:28.516Z,33.20
2018-09-11T20:31:01.940Z,33.78
2018-09-11T20:33:35.399Z,33.23
2018-09-11T20:36:08.808Z,34.50
2018-09-11T20:38:42.245Z,33.45
2018-09-11T20:41:15.779Z,32.88
2018-09-11T20:43:49.527Z,32.53
2018-09-11T20:46:22.922Z,33.58
2018-09-11T20:48:56.340Z,32.88
2018-09-11T20:51:29.784Z,34.33
2018-09-11T20:54:03.250Z,33.23
2018-09-11T20:56:36.642Z,33.02
2018-09-11T20:59:10.058Z,33.55
2018-09-11T21:01:43.446Z,33.80
2018-09-11T21:04:16.855Z,33.58
2018-09-11T21:06:50.254Z,33.28
2018-09-11T21:09:24.560Z,33.48
2018-09-11T21:11:57.952Z,33.63
2018-09-11T21:14:32.389Z,33.50
2018-09-11T21:17:05.783Z,32.98
2018-09-11T21:19:39.198Z,33.35
2018-09-11T21:22:12.598Z,33.23
2018-09-11T21:24:46.016Z,33.13
2018-09-11T21:27:19.455Z,32.85
2018-09-11T21:29:52.870Z,32.98
2018-09-11T21:32:26.259Z,33.53
2018-09-11T21:34:59.888Z,32.73
2018-09-11T21:37:33.302Z,32.80
2018-09-11T21:40:06.774Z,33.20
2018-09-11T21:42:40.170Z,32.93
2018-09-11T21:45:13.638Z,33.50
2018-09-11T21:47:48.051Z,33.28
2018-09-11T21:50:21.469Z,32.98
2018-09-11T21:52:54.947Z,33.55
2018-09-11T21:55:28.358Z,32.85
2018-09-11T21:58:01.753Z,33.70
2018-09-11T22:00:35.207Z,33.15
2018-09-11T22:03:08.601Z,32.65
2018-09-11T22:05:42.087Z,32.78
2018-09-11T22:08:15.513Z,33.50
2018-09-11T22:10:48.925Z,33.38
2018-09-11T22:13:22.323Z,33.00
2018-09-11T22:15:55.732Z,33.30
2018-09-11T22:18:29.192Z,33.30
2018-09-11T22:21:02.606Z,33.20
2018-09-11T22:23:35.995Z,32.93
2018-09-11T22:26:09.406Z,34.10
2018-09-11T22:28:42.818Z,33.90
2018-09-11T22:31:16.227Z,33.80
2018-09-11T22:33:49.614Z,33.70
2018-09-11T22:36:23.031Z,34.80
2018-09-11T22:38:56.469Z,34.27
2018-09-11T22:41:29.919Z,34.00
2018-09-11T22:44:03.385Z,34.20
2018-09-11T22:46:36.846Z,34.30
2018-09-11T22:49:10.297Z,34.25
2018-09-11T22:51:43.732Z,34.38
2018-09-11T22:54:17.126Z,33.65
2018-09-11T22:56:50.531Z,33.67
2018-09-11T22:59:23.962Z,33.92
2018-09-11T23:01:57.365Z,34.18
2018-09-11T23:04:30.769Z,33.70
2018-09-11T23:07:04.195Z,34.15
2018-09-11T23:09:37.595Z,33.85
2018-09-11T23:12:11.019Z,33.63
2018-09-11T23:14:44.466Z,33.73
2018-09-11T23:17:17.896Z,34.50
2018-09-11T23:19:51.295Z,34.00
2018-09-11T23:22:24.702Z,33.65
2018-09-11T23:24:58.127Z,34.13
2018-09-11T23:27:33.606Z,34.60
2018-09-11T23:30:07.014Z,33.30
2018-09-11T23:32:40.421Z,33.65
2018-09-11T23:35:13.802Z,34.27
2018-09-11T23:37:47.240Z,34.48
2018-09-11T23:40:20.640Z,33.40
2018-09-11T23:42:55.128Z,34.05
2018-09-11T23:45:28.527Z,32.60
2018-09-11T23:48:01.942Z,32.98
2018-09-11T23:50:35.335Z,32.63
2018-09-11T23:53:08.837Z,32.63
2018-09-11T23:55:42.295Z,32.93
2018-09-11T23:58:15.710Z,32.60
